createdAt,value
2022-10-21T03:16:39.512Z,-0.20
2022-10-21T03:19:07.709Z,-0.20
2022-10-21T03:21:36.040Z,-0.20
2022-10-21T03:24:10.898Z,-0.20
2022-10-21T03:26:48.084Z,-0.30
2022-10-21T03:29:16.447Z,-0.30
2022-10-21T03:31:46.141Z,-0.40
2022-10-21T03:34:14.432Z,-0.40
2022-10-21T03:36:42.615Z,-0.30
2022-10-21T03:39:12.068Z,-0.20
2022-10-21T03:41:40.842Z,-0.20
2022-10-21T03:44:09.221Z,-0.30
2022-10-21T03:46:37.553Z,-0.20
2022-10-21T03:49:11.982Z,-0.20
2022-10-21T03:51:44.018Z,-0.20
2022-10-21T03:54:12.207Z,-0.20
2022-10-21T03:56:40.536Z,-0.20
2022-10-21T03:59:08.847Z,-0.30
2022-10-21T04:01:37.384Z,-0.30
2022-10-21T04:04:07.227Z,-0.30
2022-10-21T04:06:35.586Z,-0.30
2022-10-21T04:09:04.132Z,-0.30
2022-10-21T04:11:32.474Z,-0.20
2022-10-21T04:14:00.662Z,-0.20
2022-10-21T04:16:28.932Z,-0.20
2022-10-21T04:18:57.224Z,-0.20
2022-10-21T04:21:27.071Z,-0.10
2022-10-21T04:23:55.276Z,-0.10
2022-10-21T04:26:23.757Z,-0.20
2022-10-21T04:28:51.975Z,0.00
2022-10-21T04:31:20.228Z,-0.20
2022-10-21T04:33:48.642Z,-0.20
2022-10-21T04:36:16.858Z,-0.20
2022-10-21T04:38:46.602Z,-0.20
2022-10-21T04:41:14.811Z,-0.10
2022-10-21T04:43:43.074Z,-0.10
2022-10-21T04:46:14.172Z,0.00
2022-10-21T04:48:42.437Z,-0.10
2022-10-21T04:51:10.726Z,0.00
2022-10-21T04:53:39.146Z,-0.10
2022-10-21T04:56:09.268Z,0.00
2022-10-21T04:58:37.578Z,0.00
2022-10-21T05:01:06.130Z,0.00
2022-10-21T05:03:34.428Z,0.20
2022-10-21T05:06:02.734Z,0.20
2022-10-21T05:08:31.025Z,0.30
2022-10-21T05:11:00.586Z,0.40
2022-10-21T05:13:30.785Z,0.40
2022-10-21T05:16:00.637Z,0.50
2022-10-21T05:18:29.299Z,0.40
2022-10-21T05:20:58.356Z,0.60
2022-10-21T05:23:27.716Z,0.60
2022-10-21T05:25:56.332Z,0.70
2022-10-21T05:28:24.748Z,0.60
2022-10-21T05:30:55.372Z,0.60
2022-10-21T05:33:23.724Z,0.60
2022-10-21T05:36:01.025Z,0.70
2022-10-21T05:38:29.678Z,0.70
2022-10-21T05:40:58.467Z,0.60
2022-10-21T05:43:28.003Z,0.70
2022-10-21T05:45:58.077Z,0.80
2022-10-21T05:48:27.202Z,1.50
2022-10-21T05:50:56.595Z,1.30
2022-10-21T05:53:25.637Z,1.30
2022-10-21T05:55:57.923Z,1.40
2022-10-21T05:58:26.590Z,1.40
2022-10-21T06:00:55.772Z,1.50
2022-10-21T06:03:29.934Z,1.60
2022-10-21T06:05:58.391Z,1.70
2022-10-21T06:08:26.970Z,1.70
2022-10-21T06:11:02.338Z,1.80
2022-10-21T06:13:30.831Z,1.80
2022-10-21T06:15:59.379Z,1.90
2022-10-21T06:18:29.675Z,1.90
2022-10-21T06:20:58.068Z,2.00
2022-10-21T06:23:26.432Z,2.00
2022-10-21T06:26:02.728Z,2.10
2022-10-21T06:28:32.496Z,2.20
2022-10-21T06:31:01.017Z,2.20
2022-10-21T06:33:31.568Z,2.30
2022-10-21T06:36:00.069Z,2.30
2022-10-21T06:38:29.220Z,2.40
2022-10-21T06:41:09.130Z,2.40
2022-10-21T06:43:40.766Z,2.40
2022-10-21T06:46:10.586Z,2.40
2022-10-21T06:48:41.156Z,2.40
2022-10-21T06:51:11.790Z,2.40
2022-10-21T06:53:40.396Z,2.50
2022-10-21T06:56:10.437Z,2.60
2022-10-21T06:58:43.310Z,2.80
2022-10-21T07:01:27.413Z,3.20
2022-10-21T07:04:04.646Z,3.40
2022-10-21T07:09:07.854Z,3.80
2022-10-21T07:11:36.696Z,3.90
2022-10-21T07:14:05.760Z,4.20
2022-10-21T07:16:35.857Z,4.30
2022-10-21T07:19:06.455Z,4.50
2022-10-21T07:21:35.007Z,4.70
2022-10-21T07:24:03.284Z,4.90
2022-10-21T07:26:34.504Z,5.20
2022-10-21T07:29:03.354Z,5.20
2022-10-21T07:31:34.831Z,4.90
2022-10-21T07:34:06.866Z,5.00
2022-10-21T07:36:38.528Z,5.00
2022-10-21T07:39:10.525Z,5.10
2022-10-21T07:41:41.607Z,5.20
2022-10-21T07:44:10.706Z,5.40
2022-10-21T07:46:40.107Z,5.50
2022-10-21T07:49:10.665Z,5.70
2022-10-21T07:51:40.331Z,5.70
2022-10-21T07:54:09.378Z,5.70
2022-10-21T07:56:41.283Z,5.80
2022-10-21T07:59:13.053Z,5.90
2022-10-21T08:01:44.770Z,5.80
2022-10-21T08:04:16.774Z,6.00
2022-10-21T08:06:47.647Z,6.20
2022-10-21T08:09:16.681Z,6.10
2022-10-21T08:11:45.042Z,6.20
2022-10-21T08:14:13.533Z,6.20
2022-10-21T08:16:42.666Z,6.20
2022-10-21T08:19:16.313Z,6.20
2022-10-21T08:21:46.018Z,6.20
2022-10-21T08:24:14.348Z,6.20
2022-10-21T08:26:42.652Z,6.40
2022-10-21T08:29:10.991Z,6.50
2022-10-21T08:31:40.521Z,6.50
2022-10-21T08:34:08.764Z,6.60
2022-10-21T08:36:38.738Z,6.60
2022-10-21T08:39:08.813Z,6.80
2022-10-21T08:42:00.194Z,6.80
2022-10-21T08:44:35.230Z,6.90
2022-10-21T08:47:11.725Z,7.10
2022-10-21T08:49:53.327Z,7.10
2022-10-21T08:52:26.360Z,7.20
2022-10-21T08:54:59.659Z,7.30
2022-10-21T08:57:28.707Z,7.50
2022-10-21T08:59:57.201Z,7.60
2022-10-21T09:02:36.445Z,7.70
2022-10-21T09:05:22.107Z,7.70
2022-10-21T09:08:01.901Z,7.70
2022-10-21T09:10:47.638Z,7.80
2022-10-21T09:13:22.074Z,7.80
2022-10-21T09:16:01.838Z,7.70
2022-10-21T09:18:43.025Z,7.70
2022-10-21T09:21:20.264Z,7.70
2022-10-21T09:23:56.264Z,7.70
2022-10-21T09:26:44.078Z,7.60
2022-10-21T09:29:32.311Z,7.60
2022-10-21T09:32:12.164Z,7.70
2022-10-21T09:34:56.122Z,7.90
2022-10-21T09:37:31.811Z,8.20
2022-10-21T09:40:13.325Z,8.20
2022-10-21T09:42:47.402Z,8.40
2022-10-21T09:45:26.042Z,8.40
2022-10-21T09:47:59.288Z,8.50
2022-10-21T09:50:29.363Z,8.50
2022-10-21T09:53:05.654Z,8.50
2022-10-21T09:55:34.562Z,8.60
2022-10-21T09:58:05.353Z,8.80
2022-10-21T10:00:43.983Z,9.10
2022-10-21T10:03:12.415Z,9.20
2022-10-21T10:05:44.492Z,9.30
2022-10-21T10:08:35.641Z,9.40
2022-10-21T10:11:12.098Z,9.50
2022-10-21T10:13:44.124Z,9.50
2022-10-21T10:16:28.116Z,9.50
2022-10-21T10:19:15.670Z,9.60
2022-10-21T10:21:44.526Z,9.70
2022-10-21T10:24:18.763Z,9.80
2022-10-21T10:26:47.908Z,9.80
2022-10-21T10:29:27.066Z,9.90
2022-10-21T10:31:57.503Z,10.10
2022-10-21T10:34:30.815Z,10.30
2022-10-21T10:37:05.594Z,10.30
2022-10-21T10:39:36.820Z,10.40
2022-10-21T10:42:05.769Z,10.60
2022-10-21T10:44:39.553Z,10.60
2022-10-21T10:47:18.930Z,10.70
2022-10-21T10:49:47.990Z,11.00
2022-10-21T10:52:21.527Z,11.20
2022-10-21T10:55:10.473Z,11.60
2022-10-21T10:57:45.864Z,11.80
2022-10-21T11:00:24.489Z,11.90
2022-10-21T11:03:01.613Z,11.80
2022-10-21T11:05:36.397Z,12.00
2022-10-21T11:08:15.519Z,11.80
2022-10-21T11:10:46.535Z,12.00
2022-10-21T11:13:17.801Z,12.00
2022-10-21T11:16:06.796Z,12.00
2022-10-21T11:18:38.743Z,12.20
2022-10-21T11:21:14.234Z,12.20
2022-10-21T11:24:16.734Z,12.60
2022-10-21T11:26:54.203Z,12.40
2022-10-21T11:29:36.829Z,12.50
2022-10-21T11:32:15.635Z,12.60
2022-10-21T11:35:02.982Z,12.30
2022-10-21T11:37:45.864Z,12.10
2022-10-21T11:40:24.163Z,11.80
2022-10-21T11:42:54.033Z,11.70
2022-10-21T11:45:47.592Z,11.50
2022-10-21T11:48:26.606Z,11.50
2022-10-21T11:51:05.243Z,11.30
2022-10-21T11:53:49.031Z,11.20
2022-10-21T11:56:24.436Z,11.30
2022-10-21T11:59:08.811Z,11.50
2022-10-21T12:01:46.867Z,11.60
2022-10-21T12:04:34.509Z,11.60
2022-10-21T12:07:15.794Z,11.70
2022-10-21T12:09:52.053Z,11.80
2022-10-21T12:12:24.827Z,11.80
2022-10-21T12:14:57.744Z,11.70
2022-10-21T12:17:27.382Z,11.60
2022-10-21T12:20:00.477Z,11.60
2022-10-21T12:22:33.160Z,11.40
2022-10-21T12:25:10.313Z,11.10
2022-10-21T12:27:46.000Z,10.90
2022-10-21T12:30:23.466Z,10.70
2022-10-21T12:33:13.518Z,10.50
2022-10-21T12:35:53.228Z,10.50
2022-10-21T12:38:25.425Z,10.40
2022-10-21T12:41:27.633Z,10.40
2022-10-21T12:44:14.259Z,10.40
2022-10-21T12:46:45.397Z,10.50
2022-10-21T12:49:32.924Z,10.50
2022-10-21T12:52:10.192Z,10.60
2022-10-21T12:54:52.420Z,10.60
2022-10-21T12:57:28.649Z,10.70
2022-10-21T13:00:32.516Z,10.70
2022-10-21T13:03:03.312Z,10.60
2022-10-21T13:06:04.089Z,10.60
2022-10-21T13:08:41.702Z,10.60
2022-10-21T13:11:40.089Z,10.60
2022-10-21T13:14:36.327Z,10.50
2022-10-21T13:17:29.584Z,10.50
2022-10-21T13:20:18.722Z,10.40
2022-10-21T13:22:48.121Z,10.40
2022-10-21T13:25:23.168Z,10.30
2022-10-21T13:27:54.180Z,10.20
2022-10-21T13:30:30.805Z,10.10
2022-10-21T13:33:03.467Z,10.10
2022-10-21T13:35:34.551Z,10.10
2022-10-21T13:38:06.382Z,10.00
2022-10-21T13:40:47.642Z,10.10
2022-10-21T13:43:19.693Z,10.10
2022-10-21T13:45:50.575Z,10.10
2022-10-21T13:48:20.887Z,10.10
2022-10-21T13:50:51.079Z,10.10
2022-10-21T13:53:30.052Z,10.10
2022-10-21T13:56:01.898Z,10.00
2022-10-21T13:58:36.149Z,10.10
2022-10-21T14:01:14.035Z,10.00
2022-10-21T14:03:44.038Z,9.90
2022-10-21T14:06:18.269Z,9.90
2022-10-21T14:08:48.543Z,9.90
2022-10-21T14:11:22.019Z,9.90
2022-10-21T14:13:52.572Z,9.90
2022-10-21T14:16:23.948Z,9.90
2022-10-21T14:18:54.382Z,9.90
2022-10-21T14:21:26.460Z,9.90
2022-10-21T14:23:55.608Z,9.80
2022-10-21T14:26:30.544Z,9.80
2022-10-21T14:29:00.923Z,9.70
2022-10-21T14:31:30.100Z,9.70
2022-10-21T14:33:58.457Z,9.60
2022-10-21T14:36:28.758Z,9.60
2022-10-21T14:39:00.613Z,9.50
2022-10-21T14:41:35.629Z,9.50
2022-10-21T14:44:09.267Z,9.50
2022-10-21T14:46:45.557Z,9.50
2022-10-21T14:49:24.458Z,9.40
2022-10-21T14:51:59.873Z,9.40
2022-10-21T14:54:35.839Z,9.30
2022-10-21T14:57:05.738Z,9.30
2022-10-21T14:59:40.008Z,9.30
2022-10-21T15:02:18.766Z,9.20
2022-10-21T15:04:53.641Z,9.20
2022-10-21T15:07:30.067Z,9.20
2022-10-21T15:10:16.258Z,9.20
2022-10-21T15:12:47.248Z,9.20
2022-10-21T15:15:46.138Z,9.10
2022-10-21T15:18:20.091Z,9.10
2022-10-21T15:20:57.768Z,9.10
2022-10-21T15:23:29.062Z,9.00
2022-10-21T15:26:00.873Z,9.00
2022-10-21T15:28:33.557Z,9.00
2022-10-21T15:31:03.072Z,9.00
2022-10-21T15:33:31.581Z,8.90
2022-10-21T15:36:04.807Z,8.90
2022-10-21T15:38:33.125Z,8.90
2022-10-21T15:41:01.463Z,8.80
2022-10-21T15:43:31.167Z,8.90
2022-10-21T15:45:59.548Z,8.90
2022-10-21T15:48:28.210Z,8.90
2022-10-21T15:50:57.900Z,9.00
2022-10-21T15:53:26.315Z,9.00
2022-10-21T15:55:55.514Z,9.00
2022-10-21T15:58:23.813Z,8.90
2022-10-21T16:00:53.592Z,8.90
2022-10-21T16:03:22.938Z,8.90
2022-10-21T16:05:51.559Z,8.90
2022-10-21T16:08:19.896Z,8.90
2022-10-21T16:10:50.060Z,8.90
2022-10-21T16:13:20.500Z,8.90
2022-10-21T16:15:53.720Z,8.90
2022-10-21T16:18:22.108Z,8.90
2022-10-21T16:20:50.358Z,8.80
2022-10-21T16:23:18.634Z,8.80
2022-10-21T16:25:46.911Z,8.70
2022-10-21T16:28:15.212Z,8.70
2022-10-21T16:30:43.416Z,8.70
2022-10-21T16:33:13.196Z,8.70
2022-10-21T16:35:41.530Z,8.60
2022-10-21T16:38:11.200Z,8.60
2022-10-21T16:40:39.602Z,8.60
2022-10-21T16:43:07.875Z,8.50
2022-10-21T16:45:36.330Z,8.50
2022-10-21T16:48:06.018Z,8.40
2022-10-21T16:50:40.598Z,8.30
2022-10-21T16:53:12.996Z,8.20
2022-10-21T16:55:41.399Z,8.20
2022-10-21T16:58:09.885Z,8.20
2022-10-21T17:00:38.281Z,8.20
2022-10-21T17:03:06.577Z,8.10
2022-10-21T17:05:36.237Z,8.10
2022-10-21T17:08:04.723Z,8.10
2022-10-21T17:10:33.022Z,8.10
2022-10-21T17:13:01.745Z,8.10
2022-10-21T17:15:30.207Z,8.10
2022-10-21T17:17:59.289Z,8.20
2022-10-21T17:20:30.479Z,8.10
2022-10-21T17:23:00.788Z,8.10
2022-10-21T17:25:29.982Z,8.10
2022-10-21T17:27:58.965Z,8.10
2022-10-21T17:30:27.401Z,8.20
2022-10-21T17:32:55.751Z,8.20
2022-10-21T17:35:24.279Z,8.20
2022-10-21T17:37:53.710Z,8.10
2022-10-21T17:40:26.392Z,8.10
2022-10-21T17:42:55.351Z,8.10
2022-10-21T17:45:23.981Z,8.10
2022-10-21T17:47:53.093Z,8.00
2022-10-21T17:50:25.500Z,7.90
2022-10-21T17:52:55.531Z,7.80
2022-10-21T17:55:26.124Z,7.80
2022-10-21T17:57:54.604Z,7.70
2022-10-21T18:00:22.980Z,7.70
2022-10-21T18:02:51.291Z,7.60
2022-10-21T18:05:20.163Z,7.50
2022-10-21T18:07:48.556Z,7.40
2022-10-21T18:10:16.867Z,7.30
2022-10-21T18:12:46.510Z,7.30
2022-10-21T18:15:15.119Z,7.20
2022-10-21T18:17:43.619Z,7.10
2022-10-21T18:20:12.877Z,7.00
2022-10-21T18:22:41.590Z,6.90
2022-10-21T18:25:10.869Z,6.80
2022-10-21T18:27:40.249Z,6.70
2022-10-21T18:30:11.605Z,6.50
2022-10-21T18:32:40.267Z,6.50
2022-10-21T18:35:09.864Z,6.40
2022-10-21T18:37:38.478Z,6.30
2022-10-21T18:40:08.330Z,6.20
2022-10-21T18:42:36.679Z,6.20
2022-10-21T18:45:05.808Z,6.10
2022-10-21T18:47:35.656Z,6.10
2022-10-21T18:50:04.461Z,6.00
2022-10-21T18:52:32.751Z,6.00
2022-10-21T18:55:01.238Z,5.90
2022-10-21T18:57:29.529Z,5.80
2022-10-21T18:59:57.882Z,5.80
2022-10-21T19:02:26.286Z,5.80
2022-10-21T19:04:59.616Z,5.80
2022-10-21T19:07:29.805Z,5.70
2022-10-21T19:09:58.083Z,5.70
2022-10-21T19:12:26.493Z,5.60
2022-10-21T19:14:54.758Z,5.70
2022-10-21T19:17:23.625Z,5.70
2022-10-21T19:19:51.976Z,5.70
2022-10-21T19:22:23.582Z,5.70
2022-10-21T19:24:51.961Z,5.80
2022-10-21T19:27:20.580Z,5.80
2022-10-21T19:29:49.311Z,5.70
2022-10-21T19:32:17.648Z,5.70
2022-10-21T19:34:45.966Z,5.80
2022-10-21T19:37:14.382Z,5.90
2022-10-21T19:39:43.986Z,5.90
2022-10-21T19:42:12.350Z,6.00
2022-10-21T19:44:40.695Z,6.00
2022-10-21T19:47:09.064Z,6.00
2022-10-21T19:49:37.563Z,6.00
2022-10-21T19:52:06.401Z,6.00
2022-10-21T19:54:34.900Z,6.00
2022-10-21T19:57:04.812Z,6.10
2022-10-21T19:59:33.402Z,6.20
2022-10-21T20:02:01.608Z,6.20
2022-10-21T20:04:32.545Z,6.30
2022-10-21T20:07:03.583Z,6.40
2022-10-21T20:09:33.887Z,6.50
2022-10-21T20:12:06.245Z,6.40
2022-10-21T20:14:34.702Z,6.40
2022-10-21T20:17:02.990Z,6.40
2022-10-21T20:19:31.336Z,6.60
2022-10-21T20:21:59.579Z,6.60
2022-10-21T20:24:28.251Z,6.70
2022-10-21T20:26:59.703Z,6.80
2022-10-21T20:29:31.853Z,6.80
2022-10-21T20:32:00.211Z,6.90
2022-10-21T20:34:28.502Z,6.90
2022-10-21T20:36:56.792Z,7.00
2022-10-21T20:39:25.052Z,7.10
2022-10-21T20:41:53.374Z,7.20
2022-10-21T20:44:21.669Z,7.20
2022-10-21T20:46:51.651Z,7.20
2022-10-21T20:49:20.092Z,7.20
2022-10-21T20:51:48.409Z,7.30
2022-10-21T20:54:19.030Z,7.40
2022-10-21T20:56:47.356Z,7.40
2022-10-21T20:59:18.547Z,7.40
2022-10-21T21:01:48.410Z,7.50
2022-10-21T21:04:20.822Z,7.50
2022-10-21T21:06:50.283Z,7.60
2022-10-21T21:12:09.141Z,7.70
2022-10-21T21:14:37.467Z,7.70
2022-10-21T21:17:05.881Z,7.70
2022-10-21T21:19:35.608Z,7.70
2022-10-21T21:22:05.105Z,7.60
2022-10-21T21:24:33.480Z,7.60
2022-10-21T21:27:01.808Z,7.50
2022-10-21T21:29:30.102Z,7.50
2022-10-21T21:31:58.347Z,7.40
2022-10-21T21:34:26.697Z,7.40
2022-10-21T21:36:56.373Z,7.30
2022-10-21T21:39:24.796Z,7.30
2022-10-21T21:41:53.190Z,7.30
2022-10-21T21:44:21.414Z,7.30
2022-10-21T21:46:49.778Z,7.20
2022-10-21T21:49:17.992Z,7.20
2022-10-21T21:51:46.380Z,7.20
2022-10-21T21:54:16.080Z,7.20
2022-10-21T21:56:44.514Z,7.20
2022-10-21T21:59:12.814Z,7.30
2022-10-21T22:01:41.126Z,7.20
2022-10-21T22:04:09.530Z,7.20
2022-10-21T22:06:38.962Z,7.20
2022-10-21T22:09:11.791Z,7.20
2022-10-21T22:11:41.638Z,7.20
2022-10-21T22:14:09.840Z,7.20
2022-10-21T22:16:38.398Z,7.20
2022-10-21T22:19:06.865Z,7.20
2022-10-21T22:21:35.141Z,7.20
2022-10-21T22:24:03.375Z,7.20
2022-10-21T22:26:31.666Z,7.20
2022-10-21T22:29:01.349Z,7.20
2022-10-21T22:31:31.006Z,7.20
2022-10-21T22:34:00.924Z,7.20
2022-10-21T22:36:29.461Z,7.20
2022-10-21T22:38:57.716Z,7.20
2022-10-21T22:41:26.294Z,7.20
2022-10-21T22:43:54.533Z,7.20
2022-10-21T22:46:39.919Z,7.20
2022-10-21T22:49:08.365Z,7.20
2022-10-21T22:51:36.695Z,7.20
2022-10-21T22:54:15.168Z,7.20
2022-10-21T22:56:47.778Z,7.20
2022-10-21T22:59:15.993Z,7.20
2022-10-21T23:01:45.705Z,7.20
2022-10-21T23:04:13.984Z,7.20
2022-10-21T23:06:42.213Z,7.20
2022-10-21T23:09:10.535Z,7.30
